Time;durP1;ratioP1;P1;durP2;ratioP2;P2;SDS_P1;SDS_P2;PMS_P1;PMS_P2;Temp;Humidity;BMP_temperature;BMP_pressure;BME280_temperature;BME280_humidity;BME280_pressure;Samples;Min_cycle;Max_cycle;Signal;HPM_P1;HPM_P2
2023/05/25 00:00:27;;;;;;;12.33;7.03;;;;;;;12.63;95.43;96753.28;5070251;28;20245;-62
2023/05/25 00:02:54;;;;;;;12.93;6.90;;;;;;;12.69;95.43;96748.19;5070752;28;20207;-61
2023/05/25 00:05:26;;;;;;;8.80;6.57;;;;;;;12.60;95.18;96751.78;5070526;28;20210;-61
2023/05/25 00:07:53;;;;;;;9.83;6.23;;;;;;;12.63;95.94;96740.84;5070230;28;20306;-59
2023/05/25 00:10:20;;;;;;;8.00;6.00;;;;;;;12.68;97.48;96746.50;5070547;28;20230;-60
2023/05/25 00:12:47;;;;;;;8.93;6.27;;;;;;;12.71;97.51;96743.56;5070788;28;20202;-61
2023/05/25 00:15:14;;;;;;;8.73;6.90;;;;;;;12.65;94.03;96749.47;5070596;28;20240;-61
2023/05/25 00:17:42;;;;;;;9.53;6.63;;;;;;;12.64;93.39;96742.53;5068911;28;20549;-61
2023/05/25 00:20:12;;;;;;;9.43;6.00;;;;;;;12.60;94.43;96743.81;5070345;28;20546;-60
2023/05/25 00:22:43;;;;;;;12.73;7.20;;;;;;;12.59;94.61;96736.84;5070751;28;20194;-60
2023/05/25 00:25:10;;;;;;;10.67;5.60;;;;;;;12.66;94.99;96742.34;5071178;28;20321;-58
2023/05/25 00:27:36;;;;;;;11.33;6.10;;;;;;;12.64;95.16;96737.22;5071387;28;20328;-60
2023/05/25 00:30:03;;;;;;;10.47;6.23;;;;;;;12.62;95.33;96741.81;5069865;28;20553;-60
2023/05/25 00:32:30;;;;;;;10.07;6.40;;;;;;;12.66;95.35;96737.03;5069636;28;20216;-60
2023/05/25 00:34:58;;;;;;;10.37;6.17;;;;;;;12.61;94.96;96734.84;5070258;28;20781;-61
2023/05/25 00:37:24;;;;;;;12.03;6.50;;;;;;;12.56;92.99;96739.78;5070006;28;20662;-61
2023/05/25 00:39:51;;;;;;;12.27;6.83;;;;;;;12.56;92.50;96736.31;5070188;28;20547;-60
2023/05/25 00:42:17;;;;;;;8.80;5.93;;;;;;;12.59;93.60;96734.19;5069996;28;20203;-60
2023/05/25 00:44:44;;;;;;;9.63;5.77;;;;;;;12.62;92.96;96736.53;5070368;28;20260;-62
2023/05/25 00:47:12;;;;;;;11.27;6.53;;;;;;;12.61;93.59;96734.84;5069844;28;20271;-61
2023/05/25 00:49:38;;;;;;;6.90;4.83;;;;;;;12.65;93.53;96732.72;5070488;28;20240;-60
2023/05/25 00:52:06;;;;;;;7.47;5.13;;;;;;;12.68;93.54;96721.81;5073345;28;20225;-62
2023/05/25 00:54:34;;;;;;;10.23;6.03;;;;;;;12.64;92.51;96721.31;5073338;28;20206;-59
2023/05/25 00:57:03;;;;;;;8.40;5.80;;;;;;;12.63;92.18;96718.78;5074055;28;20202;-62
2023/05/25 00:59:34;;;;;;;7.90;5.10;;;;;;;12.63;90.52;96719.63;5073506;28;20241;-61
2023/05/25 01:02:03;;;;;;;6.13;4.93;;;;;;;12.59;90.50;96718.25;5073032;28;20229;-60
2023/05/25 01:04:31;;;;;;;8.57;5.63;;;;;;;12.61;92.41;96721.56;5073547;28;20272;-59
2023/05/25 01:06:58;;;;;;;8.30;5.47;;;;;;;12.62;94.42;96711.81;5073772;28;20251;-61
2023/05/25 01:09:27;;;;;;;7.13;5.63;;;;;;;12.61;90.08;96726.09;5073511;28;20200;-59
2023/05/25 01:11:53;;;;;;;8.83;5.27;;;;;;;12.58;91.04;96713.94;5072271;28;20222;-59
2023/05/25 01:14:21;;;;;;;8.93;5.43;;;;;;;12.53;90.62;96712.75;5073506;28;20209;-61
2023/05/25 01:16:48;;;;;;;6.60;5.30;;;;;;;12.46;89.18;96715.19;5073275;28;20206;-60
2023/05/25 01:19:15;;;;;;;8.90;5.47;;;;;;;12.43;91.73;96718.13;5073523;28;20198;-61
2023/05/25 01:21:48;;;;;;;5.63;5.07;;;;;;;12.35;88.08;96721.53;5073119;28;20218;-60
2023/05/25 01:24:21;;;;;;;6.43;4.77;;;;;;;12.39;88.92;96725.56;5072998;28;20242;-60
2023/05/25 01:26:55;;;;;;;7.87;4.63;;;;;;;12.34;90.19;96713.72;5074670;28;20198;-60
2023/05/25 01:29:23;;;;;;;6.73;4.63;;;;;;;12.29;91.29;96716.03;5074388;28;20231;-60
2023/05/25 01:31:50;;;;;;;7.70;5.00;;;;;;;12.32;91.79;96721.03;5072683;28;20202;-60
2023/05/25 01:34:17;;;;;;;10.87;4.90;;;;;;;12.31;92.20;96725.47;5073331;28;20214;-60
2023/05/25 01:36:44;;;;;;;6.63;4.90;;;;;;;12.31;92.88;96722.84;5072665;28;20206;-61
2023/05/25 01:39:12;;;;;;;9.47;5.27;;;;;;;12.30;93.02;96722.97;5072992;28;20593;-61
2023/05/25 01:41:39;;;;;;;6.63;5.17;;;;;;;12.31;97.63;96730.78;5072376;28;20631;-61
2023/05/25 01:44:06;;;;;;;8.00;4.90;;;;;;;12.35;95.34;96726.00;5073182;28;20198;-61
2023/05/25 01:46:36;;;;;;;6.17;4.87;;;;;;;12.34;98.53;96729.63;5071823;28;20237;-61
2023/05/25 01:49:12;;;;;;;5.97;5.10;;;;;;;12.30;94.58;96723.81;5072849;28;20232;-61
2023/05/25 01:51:46;;;;;;;7.90;5.70;;;;;;;12.28;92.75;96720.50;5071825;28;20714;-62
2023/05/25 01:54:18;;;;;;;10.70;5.23;;;;;;;12.24;92.33;96723.59;5072908;28;20201;-61
2023/05/25 01:56:47;;;;;;;6.70;5.37;;;;;;;12.19;91.69;96723.19;5072319;28;20211;-61
2023/05/25 01:59:15;;;;;;;7.63;4.90;;;;;;;12.22;91.77;96725.56;5072786;28;20198;-61
2023/05/25 02:01:42;;;;;;;9.87;5.47;;;;;;;12.18;91.92;96722.38;5070974;28;20227;-61
2023/05/25 02:04:08;;;;;;;9.07;5.40;;;;;;;12.11;91.21;96721.31;5072088;28;20203;-61
2023/05/25 02:06:35;;;;;;;11.23;5.93;;;;;;;12.11;91.91;96717.81;5072735;28;20206;-61
2023/05/25 02:09:03;;;;;;;7.80;5.00;;;;;;;12.10;94.05;96721.47;5072511;28;20203;-60
2023/05/25 02:11:30;;;;;;;9.03;5.67;;;;;;;12.01;95.78;96725.03;5072299;28;20198;-59
2023/05/25 02:13:56;;;;;;;8.40;5.90;;;;;;;11.95;96.24;96719.31;5072679;28;20214;-60
2023/05/25 02:16:23;;;;;;;7.80;5.53;;;;;;;11.88;97.17;96726.19;5071370;28;20213;-61
2023/05/25 02:18:50;;;;;;;10.53;5.50;;;;;;;11.90;98.33;96723.41;5071588;28;20229;-60
2023/05/25 02:21:16;;;;;;;11.10;5.70;;;;;;;11.89;100.00;96719.94;5071841;28;20257;-61
2023/05/25 02:23:43;;;;;;;7.63;5.47;;;;;;;11.82;96.74;96718.03;5072024;28;20287;-60
2023/05/25 02:26:11;;;;;;;10.47;5.47;;;;;;;11.71;96.54;96716.41;5072886;28;20206;-60
2023/05/25 02:28:37;;;;;;;6.93;5.13;;;;;;;11.73;98.80;96703.84;5072332;28;20230;-60
2023/05/25 02:31:03;;;;;;;8.93;5.53;;;;;;;11.65;98.81;96702.91;5070710;28;20674;-60
2023/05/25 02:33:30;;;;;;;7.63;5.63;;;;;;;11.53;99.47;96707.56;5071454;28;20204;-59
2023/05/25 02:35:56;;;;;;;8.57;5.40;;;;;;;11.47;100.00;96701.03;5072193;28;20237;-60
2023/05/25 02:38:23;;;;;;;7.67;5.10;;;;;;;11.40;100.00;96701.78;5071740;28;20207;-60
2023/05/25 02:40:49;;;;;;;6.87;4.93;;;;;;;11.42;100.00;96698.00;5071377;28;20218;-61
2023/05/25 02:43:17;;;;;;;8.00;5.50;;;;;;;11.36;100.00;96701.22;5072576;28;20570;-61
2023/05/25 02:45:44;;;;;;;9.63;5.47;;;;;;;11.31;100.00;96702.63;5072111;28;20654;-60
2023/05/25 02:48:10;;;;;;;7.87;5.60;;;;;;;11.28;100.00;96705.56;5072245;28;20202;-59
2023/05/25 02:50:37;;;;;;;9.93;5.40;;;;;;;11.22;100.00;96695.56;5072870;28;20237;-60
2023/05/25 02:53:03;;;;;;;9.70;5.40;;;;;;;11.18;100.00;96696.84;5071198;28;20647;-58
2023/05/25 02:55:30;;;;;;;10.73;6.10;;;;;;;11.17;100.00;96698.66;5070996;28;20199;-60
2023/05/25 02:57:57;;;;;;;10.03;5.80;;;;;;;11.16;100.00;96698.81;5070945;28;20632;-60
2023/05/25 03:00:27;;;;;;;8.13;5.93;;;;;;;11.13;100.00;96699.91;5071421;28;20202;-60
2023/05/25 03:02:54;;;;;;;8.53;5.70;;;;;;;11.11;100.00;96696.59;5071172;28;20326;-60
2023/05/25 03:05:20;;;;;;;8.87;5.90;;;;;;;11.06;100.00;96703.28;5071408;28;20286;-59
2023/05/25 03:07:47;;;;;;;8.33;5.57;;;;;;;11.03;100.00;96701.75;5070579;28;20249;-60
2023/05/25 03:10:13;;;;;;;11.40;6.23;;;;;;;10.98;100.00;96696.09;5071473;28;20302;-61
2023/05/25 03:12:40;;;;;;;9.70;6.10;;;;;;;10.92;100.00;96697.47;5070889;28;20263;-60
2023/05/25 03:15:08;;;;;;;8.07;6.13;;;;;;;10.93;100.00;96698.31;5070776;28;20195;-60
2023/05/25 03:17:38;;;;;;;9.77;6.37;;;;;;;10.87;100.00;96694.44;5070706;28;20198;-59
2023/05/25 03:20:05;;;;;;;9.17;6.00;;;;;;;10.88;100.00;96703.19;5070919;28;20249;-60
2023/05/25 03:22:32;;;;;;;9.47;5.97;;;;;;;10.92;100.00;96704.56;5070539;28;20222;-59
2023/05/25 03:24:59;;;;;;;11.27;6.90;;;;;;;10.96;100.00;96709.44;5075320;28;20257;-60
2023/05/25 03:27:25;;;;;;;10.23;6.37;;;;;;;10.97;100.00;96713.78;5077567;28;20213;-60
2023/05/25 03:29:52;;;;;;;10.47;6.60;;;;;;;10.95;100.00;96715.72;5076028;28;20916;-58
2023/05/25 03:32:18;;;;;;;7.70;6.47;;;;;;;10.96;100.00;96727.97;5070889;28;20206;-60
2023/05/25 03:34:48;;;;;;;8.53;6.60;;;;;;;10.84;100.00;96726.44;5070551;28;20202;-61
2023/05/25 03:37:15;;;;;;;7.87;6.47;;;;;;;10.95;100.00;96717.50;5070376;28;20210;-59
2023/05/25 03:39:41;;;;;;;10.50;6.90;;;;;;;10.95;100.00;96718.34;5071075;28;20539;-58
2023/05/25 03:42:08;;;;;;;8.13;6.50;;;;;;;10.93;100.00;96709.75;5070479;28;20287;-59
2023/05/25 03:44:34;;;;;;;11.60;7.07;;;;;;;10.94;100.00;96718.50;5071129;28;20198;-60
2023/05/25 03:47:01;;;;;;;9.37;6.43;;;;;;;10.97;100.00;96719.06;5069480;28;20226;-60
2023/05/25 03:49:28;;;;;;;12.10;6.97;;;;;;;10.97;100.00;96719.06;5071381;28;20221;-60
2023/05/25 03:51:58;;;;;;;10.27;6.87;;;;;;;10.94;100.00;96714.06;5070913;28;20205;-59
2023/05/25 03:54:25;;;;;;;11.23;6.60;;;;;;;10.90;100.00;96717.97;5070879;28;20686;-59
2023/05/25 03:56:51;;;;;;;8.67;6.00;;;;;;;10.93;100.00;96714.19;5070522;28;20590;-59
2023/05/25 03:59:18;;;;;;;11.00;6.67;;;;;;;10.89;100.00;96720.75;5070158;28;20202;-60
2023/05/25 04:01:44;;;;;;;9.60;6.70;;;;;;;10.92;100.00;96723.94;5069610;28;20313;-59
2023/05/25 04:04:11;;;;;;;11.37;6.53;;;;;;;10.92;100.00;96729.22;5070372;28;20231;-60
2023/05/25 04:06:39;;;;;;;8.53;7.03;;;;;;;10.95;100.00;96723.66;5070592;28;20210;-59
2023/05/25 04:09:09;;;;;;;7.67;6.50;;;;;;;10.97;100.00;96723.53;5069920;28;20217;-59
2023/05/25 04:11:35;;;;;;;10.03;6.73;;;;;;;10.98;100.00;96733.94;5070661;28;20294;-60
2023/05/25 04:14:02;;;;;;;10.17;6.67;;;;;;;10.94;100.00;96721.16;5070094;28;20206;-57
2023/05/25 04:16:31;;;;;;;8.50;6.63;;;;;;;10.98;100.00;96730.50;5070400;28;20198;-59
2023/05/25 04:18:57;;;;;;;10.60;6.53;;;;;;;11.02;100.00;96736.31;5068631;28;20202;-60
2023/05/25 04:21:23;;;;;;;10.97;6.47;;;;;;;11.02;100.00;96718.63;5067828;28;20241;-59
2023/05/25 04:23:50;;;;;;;10.63;6.83;;;;;;;11.01;100.00;96719.63;5070340;28;20687;-59
2023/05/25 04:26:19;;;;;;;10.93;6.97;;;;;;;11.07;100.00;96729.63;5074468;28;20210;-60
2023/05/25 04:28:48;;;;;;;10.60;6.60;;;;;;;11.08;100.00;96722.50;5074931;28;20206;-60
2023/05/25 04:31:17;;;;;;;9.03;6.40;;;;;;;11.09;100.00;96729.47;5075132;28;20195;-59
2023/05/25 04:33:45;;;;;;;9.70;6.33;;;;;;;11.12;100.00;96723.91;5079194;28;20260;-61
2023/05/25 04:36:13;;;;;;;12.73;7.07;;;;;;;11.21;100.00;96736.25;5095924;28;20226;-60
2023/05/25 04:38:40;;;;;;;12.57;6.40;;;;;;;11.07;100.00;96737.56;5090184;28;20198;-62
2023/05/25 04:41:07;;;;;;;7.80;6.47;;;;;;;11.13;100.00;96736.13;5095199;28;20216;-60
2023/05/25 04:43:35;;;;;;;10.93;6.67;;;;;;;11.14;100.00;96735.16;5093457;28;20207;-61
2023/05/25 04:46:03;;;;;;;8.53;6.30;;;;;;;11.15;100.00;96744.78;5074407;28;20203;-60
2023/05/25 04:48:31;;;;;;;8.97;6.30;;;;;;;11.13;100.00;96736.97;5073376;28;20205;-58
2023/05/25 04:51:01;;;;;;;11.23;6.90;;;;;;;11.16;100.00;96741.97;5073388;28;20665;-60
2023/05/25 04:53:28;;;;;;;8.63;6.20;;;;;;;11.17;100.00;96746.28;5073995;28;20702;-61
2023/05/25 04:55:54;;;;;;;10.93;6.23;;;;;;;11.33;100.00;96746.53;5073962;28;20210;-65
2023/05/25 04:58:22;;;;;;;7.97;6.57;;;;;;;11.42;100.00;96744.81;5073111;28;20202;-63
2023/05/25 05:00:49;;;;;;;8.63;6.07;;;;;;;11.40;100.00;96755.56;5073462;28;20207;-64
2023/05/25 05:03:16;;;;;;;9.30;6.07;;;;;;;11.45;100.00;96744.50;5072655;28;20227;-63
2023/05/25 05:05:43;;;;;;;8.83;6.33;;;;;;;11.46;100.00;96760.28;5073277;28;20202;-63
2023/05/25 05:08:10;;;;;;;8.10;5.83;;;;;;;11.57;100.00;96753.94;5075951;28;20218;-64
2023/05/25 05:10:37;;;;;;;9.40;6.53;;;;;;;11.65;100.00;96754.06;5074306;28;20539;-66
2023/05/25 05:13:03;;;;;;;10.07;6.47;;;;;;;11.66;100.00;96755.72;5073185;28;20198;-63
2023/05/25 05:15:30;;;;;;;11.50;6.87;;;;;;;11.70;100.00;96754.44;5073076;28;20206;-62
2023/05/25 05:17:59;;;;;;;9.80;6.50;;;;;;;11.73;100.00;96762.13;5073733;28;20202;-64
2023/05/25 05:20:25;;;;;;;9.63;6.40;;;;;;;11.75;100.00;96765.47;5072401;28;20203;-65
2023/05/25 05:22:52;;;;;;;11.60;6.40;;;;;;;11.82;100.00;96771.84;5073465;28;20222;-64
2023/05/25 05:25:19;;;;;;;9.27;6.60;;;;;;;11.75;100.00;96768.13;5075004;28;20599;-65
2023/05/25 05:27:45;;;;;;;10.13;6.20;;;;;;;11.88;100.00;96773.91;5073690;28;20566;-63
2023/05/25 05:30:12;;;;;;;9.17;7.07;;;;;;;11.90;100.00;96771.91;5071510;28;20217;-64
2023/05/25 05:32:39;;;;;;;10.70;6.57;;;;;;;11.88;100.00;96773.91;5072641;28;20206;-63
2023/05/25 05:35:09;;;;;;;7.67;6.57;;;;;;;11.88;100.00;96776.56;5071990;28;20283;-63
2023/05/25 05:37:36;;;;;;;10.77;6.47;;;;;;;11.92;100.00;96777.94;5073049;28;20213;-64
2023/05/25 05:40:04;;;;;;;11.30;6.97;;;;;;;11.81;100.00;96783.41;5072137;28;20198;-62
2023/05/25 05:42:30;;;;;;;9.77;6.70;;;;;;;11.79;100.00;96781.91;5072444;28;20603;-63
2023/05/25 05:44:57;;;;;;;9.97;7.17;;;;;;;11.75;100.00;96770.78;5071918;28;20281;-64
2023/05/25 05:47:23;;;;;;;8.43;6.23;;;;;;;11.86;100.00;96778.53;5073116;28;20214;-65
2023/05/25 05:49:50;;;;;;;9.07;6.43;;;;;;;11.94;100.00;96778.59;5072393;28;20210;-61
2023/05/25 05:52:18;;;;;;;8.83;6.70;;;;;;;11.93;100.00;96779.59;5073908;28;20631;-63
2023/05/25 05:54:44;;;;;;;10.23;6.37;;;;;;;11.94;100.00;96783.06;5074689;28;20198;-64
2023/05/25 05:57:12;;;;;;;8.60;6.57;;;;;;;12.06;100.00;96779.25;5072608;28;20222;-62
2023/05/25 05:59:38;;;;;;;10.30;6.53;;;;;;;12.16;100.00;96780.00;5072743;28;20298;-62
2023/05/25 06:02:06;;;;;;;14.93;7.17;;;;;;;12.19;100.00;96778.88;5072425;28;20230;-64
2023/05/25 06:04:32;;;;;;;10.40;6.83;;;;;;;12.22;100.00;96775.94;5072363;28;20294;-62
2023/05/25 06:06:59;;;;;;;9.87;6.30;;;;;;;12.27;100.00;96776.31;5072675;28;20214;-64
2023/05/25 06:09:26;;;;;;;9.67;6.67;;;;;;;12.37;100.00;96777.06;5072232;28;20202;-63
2023/05/25 06:11:53;;;;;;;11.93;6.30;;;;;;;12.52;100.00;96775.56;5072171;28;20229;-62
2023/05/25 06:14:19;;;;;;;10.70;6.60;;;;;;;12.56;100.00;96778.75;5072096;28;20195;-63
2023/05/25 06:16:46;;;;;;;12.37;6.97;;;;;;;12.51;100.00;96784.50;5071884;28;20643;-62
2023/05/25 06:19:13;;;;;;;12.03;6.43;;;;;;;12.63;100.00;96777.16;5071805;28;20218;-62
2023/05/25 06:21:39;;;;;;;10.00;7.17;;;;;;;12.60;100.00;96777.47;5071895;28;20198;-62
2023/05/25 06:24:08;;;;;;;9.27;6.60;;;;;;;12.68;100.00;96786.31;5071690;28;20564;-64
2023/05/25 06:26:38;;;;;;;7.83;6.73;;;;;;;12.84;100.00;96791.78;5071875;28;21412;-63
2023/05/25 06:29:05;;;;;;;13.47;7.03;;;;;;;13.20;100.00;96802.38;5071792;28;20531;-66
2023/05/25 06:31:31;;;;;;;7.63;6.50;;;;;;;13.24;96.98;96795.75;5071804;28;20202;-62
2023/05/25 06:33:58;;;;;;;10.77;6.60;;;;;;;13.48;100.00;96795.06;5071773;28;20199;-64
2023/05/25 06:36:24;;;;;;;8.80;7.07;;;;;;;13.75;96.46;96795.72;5071874;28;20202;-63
2023/05/25 06:38:51;;;;;;;10.97;6.67;;;;;;;13.82;94.44;96796.75;5071335;28;20233;-62
2023/05/25 06:41:18;;;;;;;12.57;6.73;;;;;;;14.10;94.45;96791.22;5071881;28;20207;-66
2023/05/25 06:43:46;;;;;;;10.83;6.80;;;;;;;14.47;95.52;96788.19;5071168;28;20674;-65
2023/05/25 06:46:16;;;;;;;7.23;5.93;;;;;;;14.98;92.85;96787.06;5071509;28;20214;-62
2023/05/25 06:48:43;;;;;;;8.53;6.40;;;;;;;15.20;91.99;96792.53;5071251;28;20221;-62
2023/05/25 06:51:09;;;;;;;12.27;7.27;;;;;;;15.09;90.19;96800.88;5071462;28;20191;-62
2023/05/25 06:53:37;;;;;;;7.93;6.67;;;;;;;14.79;87.59;96806.88;5071437;28;20198;-66
2023/05/25 06:56:04;;;;;;;10.63;6.63;;;;;;;14.42;88.28;96804.63;5071001;28;20252;-63
2023/05/25 06:58:30;;;;;;;9.97;6.37;;;;;;;14.36;90.63;96794.66;5071515;28;20194;-64
2023/05/25 07:01:00;;;;;;;8.70;6.47;;;;;;;14.51;95.92;96795.69;5070916;28;20718;-63
2023/05/25 07:03:27;;;;;;;10.20;6.83;;;;;;;14.49;91.01;96802.19;5071887;28;20222;-64
2023/05/25 07:05:53;;;;;;;10.27;6.70;;;;;;;14.50;90.30;96799.34;5071590;28;20272;-63
2023/05/25 07:08:20;;;;;;;10.33;7.10;;;;;;;14.72;93.31;96806.69;5071354;28;20225;-65
2023/05/25 07:10:46;;;;;;;8.73;6.90;;;;;;;14.65;89.71;96792.38;5071006;28;20535;-63
2023/05/25 07:13:16;;;;;;;11.33;6.87;;;;;;;14.66;88.03;96794.06;5071505;28;20206;-63
2023/05/25 07:15:42;;;;;;;11.87;7.00;;;;;;;14.59;88.10;96790.38;5070617;28;20218;-63
2023/05/25 07:18:11;;;;;;;8.00;6.77;;;;;;;14.64;90.01;96806.66;5071356;28;20279;-64
2023/05/25 07:20:40;;;;;;;11.00;6.77;;;;;;;14.71;89.15;96813.00;5071414;28;20208;-62
2023/05/25 07:23:07;;;;;;;7.63;6.87;;;;;;;14.75;91.23;96814.34;5070341;28;20558;-64
2023/05/25 07:25:34;;;;;;;9.17;6.63;;;;;;;14.50;89.22;96799.34;5071323;28;20209;-63
2023/05/25 07:28:00;;;;;;;7.77;6.97;;;;;;;14.52;89.91;96808.00;5071483;28;20210;-65
2023/05/25 07:30:26;;;;;;;8.47;7.27;;;;;;;14.51;95.03;96806.31;5071163;28;20202;-66
2023/05/25 07:32:53;;;;;;;9.70;7.37;;;;;;;14.63;95.02;96820.16;5071543;28;20526;-62
2023/05/25 07:35:21;;;;;;;11.37;7.23;;;;;;;14.48;90.56;96822.63;5070896;28;20260;-62
2023/05/25 07:37:56;;;;;;;12.07;7.00;;;;;;;14.76;92.25;96832.00;5071226;28;20213;-65
2023/05/25 07:40:22;;;;;;;9.27;6.80;;;;;;;14.95;93.71;96830.81;5072106;28;20198;-63
2023/05/25 07:42:48;;;;;;;8.70;6.80;;;;;;;14.83;90.42;96835.66;5072361;28;20570;-64
2023/05/25 07:45:15;;;;;;;7.27;6.33;;;;;;;14.52;89.21;96839.09;5071553;28;20657;-65
2023/05/25 07:47:42;;;;;;;14.07;6.93;;;;;;;14.50;90.39;96841.06;5071845;28;20577;-65
2023/05/25 07:50:09;;;;;;;10.07;6.87;;;;;;;14.64;92.07;96833.28;5071805;28;20670;-64
2023/05/25 07:52:38;;;;;;;9.93;6.83;;;;;;;14.80;93.94;96833.34;5072998;28;20206;-67
2023/05/25 07:55:05;;;;;;;9.33;6.83;;;;;;;14.82;91.44;96836.66;5073708;28;20194;-63
2023/05/25 07:57:31;;;;;;;7.83;6.57;;;;;;;14.87;91.59;96845.00;5079546;28;20202;-65
2023/05/25 07:59:58;;;;;;;8.70;6.67;;;;;;;14.85;89.29;96838.97;5079885;28;20214;-66
2023/05/25 08:02:24;;;;;;;8.10;6.57;;;;;;;14.80;90.62;96846.66;5079473;28;20214;-64
2023/05/25 08:04:51;;;;;;;7.77;6.57;;;;;;;14.81;89.88;96845.63;5081606;28;20206;-64
2023/05/25 08:07:18;;;;;;;9.37;6.50;;;;;;;14.83;91.59;96846.31;5085400;28;20206;-67
2023/05/25 08:09:46;;;;;;;9.00;6.73;;;;;;;14.76;89.70;96847.97;5083209;28;20238;-64
2023/05/25 08:12:13;;;;;;;6.73;6.03;;;;;;;14.86;91.38;96837.16;5075086;28;21088;-64
2023/05/25 08:14:43;;;;;;;7.93;6.63;;;;;;;14.79;89.17;96842.31;5070919;28;20199;-62
2023/05/25 08:17:09;;;;;;;8.63;6.57;;;;;;;15.05;91.30;96839.50;5070870;28;20213;-64
2023/05/25 08:19:36;;;;;;;8.10;7.07;;;;;;;15.20;89.20;96850.31;5071011;28;20214;-63
2023/05/25 08:22:03;;;;;;;8.47;6.43;;;;;;;15.30;89.88;96851.00;5073614;28;20207;-64
2023/05/25 08:24:29;;;;;;;8.70;7.27;;;;;;;15.40;89.19;96857.00;5077051;28;20249;-63
2023/05/25 08:26:57;;;;;;;7.00;6.33;;;;;;;15.51;87.81;96864.69;5075384;28;20202;-64
2023/05/25 08:29:23;;;;;;;7.28;6.57;;;;;;;15.47;89.06;96873.13;5070826;28;20207;-65
2023/05/25 08:31:50;;;;;;;8.07;6.88;;;;;;;15.46;87.33;96877.63;5070295;28;20198;-62
2023/05/25 08:34:16;;;;;;;7.78;6.38;;;;;;;15.34;86.82;96878.97;5071116;28;20228;-64
2023/05/25 08:36:43;;;;;;;8.23;7.32;;;;;;;15.19;86.31;96864.66;5070704;28;20207;-63
2023/05/25 08:39:10;;;;;;;7.23;6.60;;;;;;;15.22;86.78;96874.97;5070301;28;20202;-63
2023/05/25 08:41:40;;;;;;;7.07;6.43;;;;;;;15.33;87.02;96872.81;5070235;28;20289;-63
2023/05/25 08:44:08;;;;;;;7.97;7.27;;;;;;;15.28;86.98;96882.28;5072682;28;20222;-63
2023/05/25 08:46:35;;;;;;;8.63;6.97;;;;;;;15.41;89.73;96886.13;5072631;28;20218;-66
2023/05/25 08:49:06;;;;;;;10.95;6.93;;;;;;;15.47;89.62;96884.63;5073025;28;20195;-65
2023/05/25 08:51:36;;;;;;;9.87;6.70;;;;;;;15.60;85.94;96886.81;5070732;28;20206;-64
2023/05/25 08:54:07;;;;;;;7.75;6.50;;;;;;;16.30;85.69;96883.31;5070378;28;20338;-65
2023/05/25 08:56:39;;;;;;;8.05;6.95;;;;;;;16.67;83.56;96895.19;5070216;28;20190;-63
2023/05/25 08:59:14;;;;;;;9.10;7.03;;;;;;;16.54;83.46;96898.41;5072396;28;20195;-64
2023/05/25 09:01:44;;;;;;;8.52;7.10;;;;;;;16.52;82.10;96891.56;5072533;28;20300;-62
2023/05/25 09:04:12;;;;;;;8.35;6.75;;;;;;;16.51;81.79;96892.59;5070060;28;20214;-62
2023/05/25 09:06:39;;;;;;;8.10;6.60;;;;;;;16.34;81.70;96899.81;5070457;28;20202;-64
2023/05/25 09:09:06;;;;;;;9.60;6.63;;;;;;;16.46;83.55;96887.75;5069917;28;20210;-65
2023/05/25 09:11:33;;;;;;;8.38;6.85;;;;;;;16.51;83.03;96896.06;5071597;28;20203;-64
2023/05/25 09:14:00;;;;;;;7.35;6.65;;;;;;;16.49;82.52;96902.59;5073733;28;20210;-62
2023/05/25 09:16:30;;;;;;;9.35;7.07;;;;;;;16.63;82.68;96901.91;5074001;28;20206;-64
2023/05/25 09:18:56;;;;;;;9.05;6.97;;;;;;;17.06;83.75;96903.16;5072125;28;20233;-63
2023/05/25 09:21:23;;;;;;;8.05;6.57;;;;;;;17.27;83.10;96903.34;5073704;28;20199;-63
2023/05/25 09:23:50;;;;;;;9.52;6.57;;;;;;;17.28;78.38;96905.84;5072689;28;20241;-65
2023/05/25 09:26:16;;;;;;;8.55;7.30;;;;;;;17.29;80.38;96912.00;5073671;28;20199;-62
2023/05/25 09:28:45;;;;;;;9.65;7.45;;;;;;;17.21;80.80;96922.78;5073750;28;20256;-65
2023/05/25 09:31:12;;;;;;;10.85;6.75;;;;;;;17.00;79.90;96926.09;5072933;28;20292;-65
2023/05/25 09:33:40;;;;;;;8.27;6.90;;;;;;;17.03;82.43;96927.56;5073084;28;20203;-63
2023/05/25 09:36:07;;;;;;;7.07;6.38;;;;;;;17.13;86.94;96928.16;5073283;28;20248;-64
2023/05/25 09:38:33;;;;;;;7.63;6.60;;;;;;;17.23;84.60;96928.75;5073099;28;20221;-62
2023/05/25 09:41:00;;;;;;;8.63;6.93;;;;;;;17.18;80.95;96933.81;5072379;28;20601;-65
2023/05/25 09:43:27;;;;;;;8.93;7.82;;;;;;;17.02;82.80;96944.59;5073023;28;20218;-63
2023/05/25 09:45:53;;;;;;;9.40;8.40;;;;;;;16.77;82.70;96939.38;5072654;28;20210;-64
2023/05/25 09:48:21;;;;;;;8.02;7.25;;;;;;;16.86;83.05;96942.88;5073244;28;20272;-63
2023/05/25 09:50:49;;;;;;;8.20;7.28;;;;;;;16.97;81.68;96936.28;5073227;28;20210;-64
2023/05/25 09:53:16;;;;;;;8.43;7.10;;;;;;;17.04;80.42;96942.59;5073087;28;20206;-66
2023/05/25 09:55:42;;;;;;;10.32;7.18;;;;;;;17.12;82.41;96946.03;5073124;28;20213;-64
2023/05/25 09:58:09;;;;;;;7.82;7.03;;;;;;;17.14;82.43;96952.06;5072834;28;20467;-64
2023/05/25 10:00:37;;;;;;;7.88;7.10;;;;;;;16.94;81.49;96956.16;5072744;28;20256;-66
2023/05/25 10:03:03;;;;;;;8.75;7.45;;;;;;;17.13;81.56;96954.88;5072916;28;20542;-65
2023/05/25 10:05:30;;;;;;;9.32;7.10;;;;;;;17.32;82.12;96955.25;5073001;28;20202;-66
2023/05/25 10:07:58;;;;;;;10.32;7.60;;;;;;;17.49;81.97;96952.50;5073093;28;20210;-65
2023/05/25 10:10:25;;;;;;;7.95;7.18;;;;;;;17.48;81.96;96948.97;5072902;28;20222;-66
2023/05/25 10:12:52;;;;;;;8.13;7.32;;;;;;;17.50;79.63;96952.28;5072460;28;20206;-64
2023/05/25 10:15:21;;;;;;;8.25;7.45;;;;;;;17.53;80.41;96957.31;5072122;28;20686;-65
2023/05/25 10:17:52;;;;;;;9.52;7.28;;;;;;;17.71;80.04;96955.16;5073331;28;20194;-66
2023/05/25 10:20:21;;;;;;;8.98;7.38;;;;;;;18.06;79.76;96958.22;5075002;28;20199;-66
2023/05/25 10:22:54;;;;;;;8.25;7.18;;;;;;;18.15;78.89;96963.31;5073257;28;20217;-67
2023/05/25 10:25:26;;;;;;;8.48;7.57;;;;;;;18.09;77.77;96955.19;5075330;28;20222;-63
2023/05/25 10:27:56;;;;;;;9.80;7.28;;;;;;;18.12;77.81;96960.16;5074219;28;20186;-64
2023/05/25 10:30:26;;;;;;;8.23;7.03;;;;;;;18.28;78.86;96963.50;5071768;28;20290;-64
2023/05/25 10:32:55;;;;;;;8.15;7.25;;;;;;;18.29;76.72;96954.47;5072238;28;20234;-65
2023/05/25 10:35:21;;;;;;;7.85;7.13;;;;;;;18.50;76.60;96956.41;5072384;28;20190;-65
2023/05/25 10:37:51;;;;;;;7.70;7.00;;;;;;;18.68;77.94;96964.94;5072234;28;20210;-63
2023/05/25 10:40:18;;;;;;;9.38;8.15;;;;;;;18.57;75.33;96962.72;5072033;28;20207;-64
2023/05/25 10:42:45;;;;;;;10.38;7.75;;;;;;;18.31;77.11;96967.69;5072297;28;20213;-64
2023/05/25 10:45:12;;;;;;;9.20;7.70;;;;;;;18.31;75.96;96975.72;5072016;28;20297;-64
2023/05/25 10:47:41;;;;;;;8.88;8.07;;;;;;;18.32;79.30;96982.72;5073540;28;20199;-64
2023/05/25 10:50:18;;;;;;;8.23;7.43;;;;;;;18.20;78.03;96989.53;5077437;28;20302;-66
2023/05/25 10:52:45;;;;;;;8.32;7.63;;;;;;;18.04;78.92;96978.97;5080289;28;20272;-67
2023/05/25 10:55:12;;;;;;;9.13;7.60;;;;;;;18.00;80.01;96983.00;5078342;28;20205;-61
2023/05/25 10:57:40;;;;;;;8.32;7.25;;;;;;;17.99;80.54;96984.06;5071049;28;20294;-64
2023/05/25 11:00:10;;;;;;;9.30;8.05;;;;;;;18.04;80.61;96985.16;5071576;28;20202;-64
2023/05/25 11:02:52;;;;;;;8.23;7.43;;;;;;;17.80;79.81;96990.72;5071304;28;20202;-65
2023/05/25 11:05:35;;;;;;;8.82;8.00;;;;;;;17.73;80.36;96979.91;5072625;28;20656;-64
2023/05/25 11:08:03;;;;;;;7.80;6.97;;;;;;;17.87;82.22;96989.81;5076672;28;20199;-65
2023/05/25 11:10:44;;;;;;;8.73;7.82;;;;;;;18.00;82.95;96986.53;5077333;28;20278;-65
2023/05/25 11:13:37;;;;;;;9.23;8.32;;;;;;;18.03;80.07;96978.13;5082960;28;20210;-64
2023/05/25 11:16:34;;;;;;;8.68;7.57;;;;;;;17.94;79.96;96975.72;5088041;28;20222;-63
2023/05/25 11:19:01;;;;;;;8.30;7.50;;;;;;;18.18;81.46;96979.00;5088496;28;20186;-65
2023/05/25 11:21:42;;;;;;;8.80;7.28;;;;;;;18.35;82.27;96982.38;5089587;28;20278;-65
2023/05/25 11:24:14;;;;;;;8.93;7.68;;;;;;;18.24;78.35;96978.28;5087020;28;20299;-66
2023/05/25 11:26:54;;;;;;;9.00;7.43;;;;;;;18.42;79.99;96976.06;5089841;28;20221;-66
2023/05/25 11:29:20;;;;;;;9.27;8.18;;;;;;;18.47;80.14;96980.88;5088774;28;20213;-63
2023/05/25 11:31:52;;;;;;;8.38;7.57;;;;;;;18.64;78.95;96978.88;5076937;28;20206;-63